createdAt,value
2018-12-07T00:00:04.592Z,3.10
2018-12-07T00:02:37.580Z,3.10
2018-12-07T00:05:13.206Z,3.10
2018-12-07T00:07:47.787Z,3.10
2018-12-07T00:10:25.520Z,3.10
2018-12-07T00:13:00.048Z,3.10
2018-12-07T00:15:33.172Z,3.10
2018-12-07T00:18:07.271Z,3.20
2018-12-07T00:20:45.669Z,3.20
2018-12-07T00:23:19.020Z,3.20
2018-12-07T00:25:52.896Z,3.20
2018-12-07T00:28:26.397Z,3.20
2018-12-07T00:30:59.259Z,3.20
2018-12-07T00:33:32.462Z,3.30
2018-12-07T00:36:05.867Z,3.20
2018-12-07T00:38:41.584Z,3.20
2018-12-07T00:41:15.549Z,3.20
2018-12-07T00:43:51.170Z,3.20
2018-12-07T00:46:24.794Z,3.20
2018-12-07T00:48:57.437Z,3.20
2018-12-07T00:51:33.864Z,3.20
2018-12-07T00:54:07.138Z,3.20
2018-12-07T00:56:44.719Z,3.10
2018-12-07T00:59:17.888Z,3.10
2018-12-07T01:01:50.815Z,3.10
2018-12-07T01:04:25.068Z,3.10
2018-12-07T01:06:58.429Z,3.20
2018-12-07T01:09:31.000Z,3.20
2018-12-07T01:12:03.952Z,3.20
2018-12-07T01:14:37.129Z,3.20
2018-12-07T01:17:14.424Z,3.20
2018-12-07T01:19:47.571Z,3.20
2018-12-07T01:22:20.509Z,3.20
2018-12-07T01:24:51.040Z,3.20
2018-12-07T01:27:24.352Z,3.20
2018-12-07T01:30:01.366Z,3.30
2018-12-07T01:32:33.877Z,3.30
2018-12-07T01:37:42.485Z,3.20
2018-12-07T01:40:15.686Z,3.20
2018-12-07T01:42:52.882Z,3.10
2018-12-07T01:45:23.798Z,3.10
2018-12-07T01:47:56.994Z,3.10
2018-12-07T01:50:29.946Z,3.10
2018-12-07T01:53:03.420Z,3.10
2018-12-07T01:55:36.625Z,3.10
2018-12-07T01:58:09.213Z,3.10
2018-12-07T02:00:42.421Z,3.10
2018-12-07T02:03:15.305Z,3.20
2018-12-07T02:05:48.563Z,3.20
2018-12-07T02:08:25.241Z,3.10
2018-12-07T02:10:58.496Z,3.20
2018-12-07T02:13:36.726Z,3.10
2018-12-07T02:16:09.900Z,3.10
2018-12-07T02:18:42.880Z,3.10
2018-12-07T02:21:15.247Z,3.10
2018-12-07T02:23:48.452Z,3.20
2018-12-07T02:26:25.241Z,3.20
2018-12-07T02:28:58.432Z,3.20
2018-12-07T02:31:31.766Z,3.20
2018-12-07T02:34:04.889Z,3.20
2018-12-07T02:36:38.088Z,3.30
2018-12-07T02:39:15.417Z,3.30
2018-12-07T02:41:49.226Z,3.30
2018-12-07T02:44:21.975Z,3.30
2018-12-07T02:46:59.259Z,3.30
2018-12-07T02:49:32.492Z,3.30
2018-12-07T02:52:05.042Z,3.30
2018-12-07T02:54:47.330Z,3.30
2018-12-07T02:57:24.391Z,3.30
2018-12-07T03:00:00.926Z,3.30
2018-12-07T03:02:34.227Z,3.30
2018-12-07T03:05:11.585Z,3.40
2018-12-07T03:07:45.529Z,3.40
2018-12-07T03:10:18.320Z,3.40
2018-12-07T03:12:55.727Z,3.40
2018-12-07T03:15:29.101Z,3.40
2018-12-07T03:18:08.178Z,3.40
2018-12-07T03:20:40.552Z,3.40
2018-12-07T03:23:17.755Z,3.40
2018-12-07T03:25:50.945Z,3.40
2018-12-07T03:28:23.465Z,3.40
2018-12-07T03:30:56.130Z,3.40
2018-12-07T03:33:29.270Z,3.40
2018-12-07T03:36:02.894Z,3.40
2018-12-07T03:38:36.077Z,3.40
2018-12-07T03:41:09.682Z,3.40
2018-12-07T03:43:42.666Z,3.40
2018-12-07T03:46:16.349Z,3.30
2018-12-07T03:48:49.419Z,3.30
2018-12-07T03:53:58.722Z,3.30
2018-12-07T03:56:31.706Z,3.20
2018-12-07T03:59:04.878Z,3.30
2018-12-07T04:01:41.994Z,3.30
2018-12-07T04:04:15.503Z,3.20
2018-12-07T04:06:53.485Z,3.20
2018-12-07T04:09:26.654Z,3.20
2018-12-07T04:12:03.893Z,3.20
2018-12-07T04:14:37.069Z,3.20
2018-12-07T04:17:09.522Z,3.20
2018-12-07T04:19:45.933Z,3.20
2018-12-07T04:22:18.709Z,3.20
2018-12-07T04:24:55.280Z,3.20
2018-12-07T04:27:28.482Z,3.20
2018-12-07T04:30:15.504Z,3.30
2018-12-07T04:32:48.796Z,3.30
2018-12-07T04:35:22.032Z,3.20
2018-12-07T04:37:58.523Z,3.30
2018-12-07T04:40:32.985Z,3.30
2018-12-07T04:43:05.994Z,3.30
2018-12-07T04:45:39.061Z,3.30
2018-12-07T04:48:12.214Z,3.30
2018-12-07T04:50:45.388Z,3.30
2018-12-07T04:53:19.368Z,3.30
2018-12-07T04:55:57.085Z,3.30
2018-12-07T04:58:30.041Z,3.40
2018-12-07T05:23:49.334Z,3.40
2018-12-07T05:26:21.546Z,3.40
2018-12-07T05:28:54.182Z,3.40
2018-12-07T05:31:27.338Z,3.40
2018-12-07T05:33:59.558Z,3.50
2018-12-07T05:36:32.767Z,3.50
2018-12-07T05:39:08.950Z,3.50
2018-12-07T05:41:45.318Z,3.50
2018-12-07T05:44:18.401Z,3.50
2018-12-07T05:46:54.847Z,3.60
2018-12-07T05:49:27.843Z,3.50
2018-12-07T05:52:04.452Z,3.50
2018-12-07T05:54:37.440Z,3.60
2018-12-07T05:57:10.442Z,3.60
2018-12-07T05:59:43.459Z,3.60
2018-12-07T06:02:15.884Z,3.60
2018-12-07T06:04:52.148Z,3.60
2018-12-07T06:07:24.417Z,3.60
2018-12-07T06:09:56.700Z,3.60
2018-12-07T06:12:29.253Z,3.60
2018-12-07T06:15:06.275Z,3.60
2018-12-07T06:17:38.705Z,3.60
2018-12-07T06:20:15.052Z,3.60
2018-12-07T06:22:48.109Z,3.70
2018-12-07T06:25:21.445Z,3.70
2018-12-07T06:27:54.627Z,3.70
2018-12-07T06:30:28.066Z,3.70
2018-12-07T06:33:01.188Z,3.80
2018-12-07T06:35:34.295Z,3.80
2018-12-07T06:38:06.454Z,3.80
2018-12-07T06:40:39.637Z,3.80
2018-12-07T06:43:11.874Z,3.80
2018-12-07T06:45:49.428Z,3.80
2018-12-07T06:48:22.329Z,3.80
2018-12-07T06:50:58.675Z,3.80
2018-12-07T06:53:31.902Z,3.90
2018-12-07T06:56:04.180Z,3.90
2018-12-07T06:58:37.358Z,3.90
2018-12-07T07:01:10.447Z,3.90
2018-12-07T07:03:43.881Z,3.90
2018-12-07T07:06:20.336Z,3.90
2018-12-07T07:08:57.453Z,3.90
2018-12-07T07:11:29.605Z,4.00
2018-12-07T07:14:02.216Z,4.00
2018-12-07T07:16:32.350Z,4.00
2018-12-07T07:19:04.787Z,4.00
2018-12-07T07:21:37.173Z,4.10
2018-12-07T07:24:10.440Z,4.10
2018-12-07T07:26:49.802Z,4.10
2018-12-07T07:29:22.837Z,4.10
2018-12-07T07:31:59.226Z,4.10
2018-12-07T07:34:35.518Z,4.20
2018-12-07T07:37:08.585Z,4.20
2018-12-07T07:39:45.638Z,4.20
2018-12-07T07:42:18.719Z,4.30
2018-12-07T07:44:51.725Z,4.30
2018-12-07T07:47:27.938Z,4.30
2018-12-07T07:50:00.069Z,4.20
2018-12-07T07:52:32.791Z,4.30
2018-12-07T07:55:09.076Z,4.30
2018-12-07T07:57:42.881Z,4.30
2018-12-07T08:00:15.688Z,4.30
2018-12-07T08:02:48.025Z,4.30
2018-12-07T08:05:20.641Z,4.40
2018-12-07T08:07:53.089Z,4.40
2018-12-07T08:10:25.375Z,4.50
2018-12-07T08:12:58.773Z,4.50
2018-12-07T08:15:35.107Z,4.60
2018-12-07T08:18:11.817Z,4.60
2018-12-07T08:20:44.660Z,4.60
2018-12-07T08:23:16.948Z,4.70
2018-12-07T08:25:49.721Z,4.80
2018-12-07T08:28:22.928Z,4.80
2018-12-07T08:33:32.247Z,4.90
2018-12-07T08:36:04.451Z,4.90
2018-12-07T08:38:40.633Z,5.00
2018-12-07T08:41:12.956Z,5.00
2018-12-07T08:43:45.951Z,5.00
2018-12-07T08:46:18.625Z,5.10
2018-12-07T08:48:51.525Z,5.10
2018-12-07T08:51:24.573Z,5.20
2018-12-07T08:53:57.460Z,5.20
2018-12-07T08:56:30.614Z,5.30
2018-12-07T08:59:02.862Z,5.30
2018-12-07T09:01:39.184Z,5.30
2018-12-07T09:04:12.220Z,5.30
2018-12-07T09:06:48.504Z,5.40
2018-12-07T09:09:25.039Z,5.50
2018-12-07T09:11:57.333Z,5.60
2018-12-07T09:14:29.585Z,5.70
2018-12-07T09:17:06.334Z,5.80
2018-12-07T09:19:59.559Z,5.90
2018-12-07T09:22:33.409Z,5.90
2018-12-07T09:25:27.592Z,6.00
2018-12-07T09:37:41.533Z,6.10
2018-12-07T09:40:17.078Z,6.20
2018-12-07T09:42:53.747Z,6.20
2018-12-07T09:45:41.830Z,6.30
2018-12-07T09:48:14.368Z,6.40
2018-12-07T09:50:47.979Z,6.60
2018-12-07T09:53:29.756Z,6.70
2018-12-07T09:56:24.889Z,6.80
2018-12-07T09:59:03.463Z,6.90
2018-12-07T10:01:43.098Z,7.00
2018-12-07T10:04:16.427Z,7.00
2018-12-07T10:06:50.663Z,7.10
2018-12-07T10:09:23.844Z,7.20
2018-12-07T10:12:12.857Z,7.40
2018-12-07T10:14:54.796Z,7.50
2018-12-07T10:17:27.699Z,7.80
2018-12-07T10:20:00.660Z,8.00
2018-12-07T10:22:33.457Z,8.20
2018-12-07T10:25:12.061Z,8.40
2018-12-07T10:27:45.169Z,8.70
2018-12-07T10:30:23.215Z,8.90
2018-12-07T10:33:15.059Z,9.30
2018-12-07T10:35:47.817Z,9.50
2018-12-07T10:38:25.841Z,9.70
2018-12-07T10:46:09.504Z,10.40
2018-12-07T10:48:43.657Z,10.50
2018-12-07T10:51:18.841Z,10.50
2018-12-07T10:53:52.206Z,10.60
2018-12-07T10:56:25.631Z,10.60
2018-12-07T10:59:00.477Z,10.60
2018-12-07T11:01:42.213Z,10.60
2018-12-07T11:07:54.059Z,10.70
2018-12-07T11:10:39.607Z,10.60
2018-12-07T11:13:19.851Z,10.30
2018-12-07T11:15:58.579Z,10.10
2018-12-07T11:18:35.840Z,9.80
2018-12-07T11:21:11.286Z,9.70
2018-12-07T11:25:53.760Z,9.50
2018-12-07T11:28:31.174Z,9.40
2018-12-07T11:31:12.459Z,9.30
2018-12-07T11:33:54.337Z,9.20
2018-12-07T11:36:27.479Z,9.10
2018-12-07T11:39:00.716Z,9.20
2018-12-07T11:41:33.721Z,9.20
2018-12-07T11:44:07.129Z,9.30
2018-12-07T11:46:40.400Z,9.40
2018-12-07T11:49:17.552Z,9.50
2018-12-07T11:51:51.272Z,9.60
2018-12-07T11:54:24.701Z,9.60
2018-12-07T11:56:57.971Z,9.70
2018-12-07T11:59:31.027Z,9.70
2018-12-07T12:02:04.307Z,9.80
2018-12-07T12:04:37.667Z,9.80
2018-12-07T12:07:23.697Z,9.80
2018-12-07T12:10:00.740Z,9.80
2018-12-07T12:12:34.004Z,9.80
2018-12-07T12:15:07.597Z,9.80
2018-12-07T12:17:44.878Z,9.80
2018-12-07T12:20:18.506Z,9.70
2018-12-07T12:23:07.015Z,9.70
2018-12-07T12:26:05.033Z,9.70
2018-12-07T12:28:55.500Z,9.60
2018-12-07T12:31:40.979Z,9.40
2018-12-07T12:38:22.689Z,9.20
2018-12-07T12:55:23.184Z,9.00
2018-12-07T12:58:12.544Z,9.00
2018-12-07T13:01:18.867Z,9.00
2018-12-07T13:04:12.565Z,9.00
2018-12-07T13:07:03.497Z,8.90
2018-12-07T13:09:52.217Z,8.90
2018-12-07T13:12:40.242Z,9.00
2018-12-07T13:21:56.956Z,9.60
2018-12-07T13:28:45.928Z,10.00
2018-12-07T13:31:56.346Z,10.00
2018-12-07T13:34:51.093Z,10.00
2018-12-07T14:40:52.403Z,8.00
2018-12-07T14:43:30.597Z,7.90
2018-12-07T14:46:06.114Z,7.80
2018-12-07T14:48:45.546Z,7.80
2018-12-07T14:51:35.768Z,7.80
2018-12-07T14:54:30.299Z,7.80
2018-12-07T14:57:04.961Z,7.70
2018-12-07T14:59:47.255Z,7.70
2018-12-07T15:02:26.430Z,7.60
2018-12-07T15:17:54.839Z,7.50
2018-12-07T15:20:48.003Z,7.50
2018-12-07T15:23:37.383Z,7.20
2018-12-07T15:26:22.757Z,7.10
2018-12-07T15:29:19.113Z,7.10
2018-12-07T15:32:08.939Z,7.10
2018-12-07T15:40:57.257Z,7.00
2018-12-07T15:47:38.614Z,7.00
2018-12-07T15:50:44.311Z,7.00
2018-12-07T15:53:23.104Z,7.00
2018-12-07T15:56:13.058Z,7.00
2018-12-07T15:59:11.181Z,7.00
2018-12-07T16:01:48.425Z,7.00
2018-12-07T16:07:20.246Z,6.90
2018-12-07T16:10:08.889Z,7.00
2018-12-07T16:27:02.468Z,6.90
2018-12-07T16:43:33.199Z,6.80
2018-12-07T16:49:25.213Z,6.80
2018-12-07T16:52:26.106Z,6.70
2018-12-07T16:55:16.969Z,6.70
2018-12-07T17:01:17.734Z,6.60
2018-12-07T17:04:12.869Z,6.60
2018-12-07T17:06:51.660Z,6.60
2018-12-07T17:09:25.244Z,6.60
2018-12-07T17:12:01.609Z,6.60
2018-12-07T17:14:35.249Z,6.60
2018-12-07T17:17:28.556Z,6.60
2018-12-07T17:20:05.948Z,6.60
2018-12-07T17:22:38.803Z,6.60
2018-12-07T17:25:12.098Z,6.60
2018-12-07T17:27:45.394Z,6.60
2018-12-07T17:30:17.965Z,6.50
2018-12-07T17:32:51.530Z,6.50
2018-12-07T17:35:24.316Z,6.40
2018-12-07T17:38:00.682Z,6.40
2018-12-07T17:40:33.965Z,6.40
2018-12-07T17:43:06.892Z,6.30
2018-12-07T17:48:21.698Z,6.30
2018-12-07T17:50:55.062Z,6.20
2018-12-07T17:53:28.129Z,6.20
2018-12-07T17:56:04.679Z,6.20
2018-12-07T17:58:37.795Z,6.20
2018-12-07T18:01:10.956Z,6.20
2018-12-07T18:03:43.235Z,6.20
2018-12-07T18:06:15.765Z,6.20
2018-12-07T18:08:48.836Z,6.10
2018-12-07T18:11:25.074Z,6.10
2018-12-07T18:13:57.578Z,6.10
2018-12-07T18:16:33.986Z,6.10
2018-12-07T18:19:10.582Z,6.10
2018-12-07T18:21:44.286Z,6.10
2018-12-07T18:24:16.944Z,6.10
2018-12-07T18:26:50.130Z,6.10
2018-12-07T18:29:23.235Z,6.10
2018-12-07T18:31:55.886Z,6.10
2018-12-07T18:34:29.050Z,6.10
2018-12-07T18:37:05.598Z,6.10
2018-12-07T18:39:38.101Z,6.10
2018-12-07T18:42:11.492Z,6.10
2018-12-07T18:44:44.326Z,6.10
2018-12-07T18:47:17.475Z,6.00
2018-12-07T18:49:49.904Z,6.00
2018-12-07T18:52:22.214Z,6.00
2018-12-07T18:54:55.518Z,6.10
2018-12-07T18:57:28.742Z,6.00
2018-12-07T19:00:01.745Z,6.00
2018-12-07T19:02:35.005Z,6.00
2018-12-07T19:05:08.301Z,6.00
2018-12-07T19:07:41.420Z,6.10
2018-12-07T19:10:18.543Z,6.00
2018-12-07T19:12:51.666Z,6.00
2018-12-07T19:15:29.627Z,6.00
2018-12-07T19:18:02.539Z,6.00
2018-12-07T19:20:35.600Z,5.90
2018-12-07T19:23:08.700Z,6.00
2018-12-07T19:25:42.036Z,6.00
2018-12-07T19:28:16.325Z,5.90
2018-12-07T19:30:54.186Z,6.00
2018-12-07T19:33:27.643Z,6.00
2018-12-07T19:36:01.002Z,6.00
2018-12-07T19:38:34.165Z,6.00
2018-12-07T19:41:11.417Z,5.90
2018-12-07T19:43:48.479Z,6.00
2018-12-07T19:46:21.144Z,5.90
2018-12-07T19:48:58.243Z,5.90
2018-12-07T19:51:35.407Z,5.90
2018-12-07T19:54:08.660Z,5.90
2018-12-07T19:56:41.158Z,5.90
2018-12-07T19:59:14.642Z,5.90
2018-12-07T20:01:47.631Z,5.90
2018-12-07T20:04:20.846Z,5.90
2018-12-07T20:06:54.166Z,5.90
2018-12-07T20:09:26.916Z,5.90
2018-12-07T20:11:59.438Z,5.90
2018-12-07T20:14:32.884Z,5.90
2018-12-07T20:17:05.621Z,5.80
2018-12-07T20:19:38.958Z,5.80
2018-12-07T20:22:12.226Z,5.80
2018-12-07T20:24:45.650Z,5.80
2018-12-07T20:27:18.810Z,5.80
2018-12-07T20:29:52.375Z,5.80
2018-12-07T20:32:25.304Z,5.80
2018-12-07T20:34:56.775Z,5.80
2018-12-07T20:37:27.538Z,5.80
2018-12-07T20:40:00.148Z,5.80
2018-12-07T20:42:32.878Z,5.70
2018-12-07T20:45:06.527Z,5.80
2018-12-07T20:47:39.729Z,5.70
2018-12-07T20:50:13.476Z,5.70
2018-12-07T20:52:46.676Z,5.70
2018-12-07T20:55:20.023Z,5.70
2018-12-07T20:57:52.949Z,5.70
2018-12-07T21:00:26.241Z,5.70
2018-12-07T21:02:59.609Z,5.70
2018-12-07T21:05:48.753Z,5.70
2018-12-07T21:09:14.050Z,5.70
2018-12-07T21:11:55.968Z,5.70
2018-12-07T21:14:34.194Z,5.70
2018-12-07T21:17:12.194Z,5.60
2018-12-07T21:19:54.684Z,5.60
2018-12-07T21:22:28.401Z,5.60
2018-12-07T21:25:05.567Z,5.60
2018-12-07T21:27:38.693Z,5.50
2018-12-07T21:31:05.908Z,5.50
2018-12-07T21:33:55.143Z,5.50
2018-12-07T21:36:41.969Z,5.60
2018-12-07T21:39:26.537Z,5.60
2018-12-07T21:42:00.083Z,5.60
2018-12-07T21:44:33.101Z,5.60
2018-12-07T21:47:06.287Z,5.60
2018-12-07T21:49:50.820Z,5.50
2018-12-07T21:52:31.150Z,5.50
2018-12-07T21:55:04.403Z,5.50
2018-12-07T21:57:37.402Z,5.50
2018-12-07T22:00:10.468Z,5.40
2018-12-07T22:02:43.931Z,5.40
2018-12-07T22:05:16.896Z,5.30
2018-12-07T22:07:50.177Z,5.40
2018-12-07T22:10:26.830Z,5.40
2018-12-07T22:12:59.698Z,5.40
2018-12-07T22:15:32.801Z,5.40
2018-12-07T22:18:09.117Z,5.50
2018-12-07T22:20:46.261Z,5.40
2018-12-07T22:23:19.572Z,5.50
2018-12-07T22:25:56.713Z,5.50
2018-12-07T22:28:29.678Z,5.50
2018-12-07T22:31:02.700Z,5.50
2018-12-07T22:33:34.996Z,5.40
2018-12-07T22:36:09.591Z,5.40
2018-12-07T22:38:41.873Z,5.50
2018-12-07T22:41:14.739Z,5.40
2018-12-07T22:43:47.099Z,5.40
2018-12-07T22:46:20.196Z,5.40
2018-12-07T22:48:52.850Z,5.40
2018-12-07T22:51:25.908Z,5.30
2018-12-07T22:53:58.317Z,5.20
2018-12-07T22:56:31.306Z,5.20
2018-12-07T22:59:03.527Z,5.10
2018-12-07T23:01:39.776Z,5.10
2018-12-07T23:04:12.836Z,5.10
2018-12-07T23:06:49.128Z,5.10
2018-12-07T23:09:21.305Z,5.10
2018-12-07T23:11:54.289Z,5.10
2018-12-07T23:14:26.475Z,5.10
2018-12-07T23:17:00.121Z,5.10
2018-12-07T23:19:34.674Z,5.00
2018-12-07T23:22:07.609Z,5.10
2018-12-07T23:24:41.097Z,5.00
2018-12-07T23:27:13.660Z,5.00
2018-12-07T23:29:46.125Z,4.90
2018-12-07T23:32:22.487Z,5.00
2018-12-07T23:34:56.397Z,4.90
2018-12-07T23:37:29.672Z,4.90
2018-12-07T23:40:02.671Z,4.80
2018-12-07T23:42:35.894Z,4.80
2018-12-07T23:45:08.904Z,4.90
2018-12-07T23:47:41.504Z,4.80
2018-12-07T23:50:14.718Z,4.90
2018-12-07T23:52:51.044Z,4.90
2018-12-07T23:55:23.252Z,4.90
2018-12-07T23:58:01.373Z,4.90
